createdAt,value
2023-07-05T00:00:10.997Z,1010.56
2023-07-05T00:01:13.158Z,1010.62
2023-07-05T00:02:10.945Z,1010.59
2023-07-05T00:03:10.886Z,1010.60
2023-07-05T00:04:10.891Z,1010.60
2023-07-05T00:05:10.902Z,1010.66
2023-07-05T00:06:10.809Z,1010.60
2023-07-05T00:07:10.764Z,1010.58
2023-07-05T00:08:10.754Z,1010.58
2023-07-05T00:09:10.695Z,1010.53
2023-07-05T00:10:15.605Z,1010.51
2023-07-05T00:11:10.733Z,1010.50
2023-07-05T00:12:11.103Z,1010.48
2023-07-05T00:13:10.666Z,1010.51
2023-07-05T00:14:10.572Z,1010.49
2023-07-05T00:15:10.558Z,1010.49
2023-07-05T00:16:10.504Z,1010.44
2023-07-05T00:17:10.454Z,1010.48
2023-07-05T00:18:10.423Z,1010.44
2023-07-05T00:19:10.465Z,1010.42
2023-07-05T00:20:10.391Z,1010.35
2023-07-05T00:21:10.326Z,1010.38
2023-07-05T00:22:10.295Z,1010.40
2023-07-05T00:23:10.270Z,1010.33
2023-07-05T00:24:10.300Z,1010.32
2023-07-05T00:25:10.202Z,1010.31
2023-07-05T00:26:10.164Z,1010.31
2023-07-05T00:27:10.136Z,1010.31
2023-07-05T00:28:12.608Z,1010.29
2023-07-05T00:29:10.224Z,1010.26
2023-07-05T00:30:10.042Z,1010.30
2023-07-05T00:31:10.108Z,1010.26
2023-07-05T00:32:09.976Z,1010.24
2023-07-05T00:33:09.991Z,1010.21
2023-07-05T00:34:09.991Z,1010.20
2023-07-05T00:35:09.878Z,1010.20
2023-07-05T00:36:09.878Z,1010.16
2023-07-05T00:37:09.836Z,1010.20
2023-07-05T00:38:09.795Z,1010.18
2023-07-05T00:39:09.787Z,1010.13
2023-07-05T00:40:09.796Z,1010.08
2023-07-05T00:41:09.696Z,1010.13
2023-07-05T00:42:09.681Z,1010.09
2023-07-05T00:43:09.652Z,1010.09
2023-07-05T00:44:09.675Z,1010.10
2023-07-05T00:45:09.582Z,1010.08
2023-07-05T00:46:09.653Z,1010.05
2023-07-05T00:47:09.513Z,1010.08
2023-07-05T00:48:09.492Z,1010.03
2023-07-05T00:49:09.448Z,1009.97
2023-07-05T00:50:09.457Z,1009.94
2023-07-05T00:51:09.388Z,1009.91
2023-07-05T00:52:09.415Z,1009.90
2023-07-05T00:53:09.330Z,1009.93
2023-07-05T00:54:09.293Z,1009.91
2023-07-05T00:55:09.261Z,1009.86
2023-07-05T00:56:09.237Z,1009.90
2023-07-05T00:57:09.194Z,1009.92
2023-07-05T00:58:09.236Z,1009.94
2023-07-05T00:59:09.210Z,1009.92
2023-07-05T01:00:09.099Z,1009.88
2023-07-05T01:01:09.108Z,1009.88
2023-07-05T01:02:09.093Z,1009.86
2023-07-05T01:03:09.072Z,1009.84
2023-07-05T01:04:09.038Z,1009.81
2023-07-05T01:05:09.077Z,1009.80
2023-07-05T01:06:08.921Z,1009.76
2023-07-05T01:07:08.909Z,1009.76
2023-07-05T01:08:08.908Z,1009.72
2023-07-05T01:09:08.841Z,1009.71
2023-07-05T01:10:08.976Z,1009.64
2023-07-05T01:11:08.754Z,1009.60
2023-07-05T01:12:08.731Z,1009.57
2023-07-05T01:13:08.694Z,1009.57
2023-07-05T01:14:08.738Z,1009.59
2023-07-05T01:15:08.647Z,1009.56
2023-07-05T01:16:08.598Z,1009.57
2023-07-05T01:17:08.601Z,1009.57
2023-07-05T01:18:08.655Z,1009.53
2023-07-05T01:19:08.509Z,1009.53
2023-07-05T01:20:08.526Z,1009.54
2023-07-05T01:21:08.441Z,1009.50
2023-07-05T01:22:08.423Z,1009.45
2023-07-05T01:23:08.406Z,1009.47
2023-07-05T01:24:08.361Z,1009.49
2023-07-05T01:25:08.308Z,1009.50
2023-07-05T01:26:08.352Z,1009.46
2023-07-05T01:27:08.252Z,1009.41
2023-07-05T01:28:08.321Z,1009.43
2023-07-05T01:29:08.215Z,1009.38
2023-07-05T01:30:08.189Z,1009.38
2023-07-05T01:31:08.191Z,1009.36
2023-07-05T01:32:08.101Z,1009.37
2023-07-05T01:33:08.104Z,1009.34
2023-07-05T01:34:08.113Z,1009.38
2023-07-05T01:35:08.037Z,1009.34
2023-07-05T01:36:08.007Z,1009.40
2023-07-05T01:37:07.945Z,1009.37
2023-07-05T01:38:07.938Z,1009.35
2023-07-05T01:39:07.951Z,1009.35
2023-07-05T01:40:07.874Z,1009.34
2023-07-05T01:41:07.816Z,1009.34
2023-07-05T01:42:07.803Z,1009.31
2023-07-05T01:43:07.763Z,1009.29
2023-07-05T01:44:07.777Z,1009.29
2023-07-05T01:45:07.703Z,1009.30
2023-07-05T01:46:07.689Z,1009.27
2023-07-05T01:47:07.671Z,1009.29
2023-07-05T01:48:07.614Z,1009.29
2023-07-05T01:49:07.708Z,1009.30
2023-07-05T01:50:07.547Z,1009.28
2023-07-05T01:51:07.519Z,1009.27
2023-07-05T01:52:07.486Z,1009.26
2023-07-05T01:53:07.467Z,1009.30
2023-07-05T01:54:07.470Z,1009.27
2023-07-05T01:55:07.412Z,1009.25
2023-07-05T01:56:07.354Z,1009.25
2023-07-05T01:57:07.359Z,1009.23
2023-07-05T01:58:07.291Z,1009.25
2023-07-05T01:59:07.259Z,1009.27
2023-07-05T02:00:07.280Z,1009.25
2023-07-05T02:01:07.234Z,1009.23
2023-07-05T02:02:07.217Z,1009.24
2023-07-05T02:03:07.218Z,1009.25
2023-07-05T02:04:07.105Z,1009.25
2023-07-05T02:05:07.151Z,1009.23
2023-07-05T02:06:07.047Z,1009.21
2023-07-05T02:07:07.039Z,1009.18
2023-07-05T02:08:07.005Z,1009.15
2023-07-05T02:09:06.974Z,1009.15
2023-07-05T02:10:06.979Z,1009.16
2023-07-05T02:11:06.899Z,1009.13
2023-07-05T02:12:06.868Z,1009.11
2023-07-05T02:13:06.851Z,1009.09
2023-07-05T02:14:06.811Z,1009.08
2023-07-05T02:15:06.768Z,1009.06
2023-07-05T02:16:06.793Z,1009.05
2023-07-05T02:17:06.743Z,1009.02
2023-07-05T02:18:06.781Z,1008.97
2023-07-05T02:19:06.668Z,1008.99
2023-07-05T02:20:06.702Z,1008.96
2023-07-05T02:21:06.604Z,1008.98
2023-07-05T02:22:06.622Z,1008.93
2023-07-05T02:23:06.545Z,1008.92
2023-07-05T02:24:06.505Z,1008.95
2023-07-05T02:25:06.475Z,1008.92
2023-07-05T02:26:06.438Z,1008.88
2023-07-05T02:27:06.422Z,1008.91
2023-07-05T02:28:06.456Z,1008.86
2023-07-05T02:29:06.348Z,1008.81
2023-07-05T02:30:06.380Z,1008.78
2023-07-05T02:31:06.340Z,1008.81
2023-07-05T02:32:06.252Z,1008.83
2023-07-05T02:33:06.333Z,1008.81
2023-07-05T02:34:06.245Z,1008.77
2023-07-05T02:35:06.175Z,1008.74
2023-07-05T02:36:06.144Z,1008.71
2023-07-05T02:37:06.107Z,1008.65
2023-07-05T02:38:06.074Z,1008.61
2023-07-05T02:39:06.057Z,1008.63
2023-07-05T02:40:06.094Z,1008.59
2023-07-05T02:41:06.002Z,1008.57
2023-07-05T02:42:06.048Z,1008.55
2023-07-05T02:43:05.920Z,1008.52
2023-07-05T02:44:05.958Z,1008.43
2023-07-05T02:45:05.856Z,1008.45
2023-07-05T02:46:05.859Z,1008.44
2023-07-05T02:47:05.792Z,1008.40
2023-07-05T02:48:05.811Z,1008.38
2023-07-05T02:49:05.745Z,1008.36
2023-07-05T02:50:05.769Z,1008.33
2023-07-05T02:51:05.680Z,1008.27
2023-07-05T02:52:05.648Z,1008.26
2023-07-05T02:53:05.621Z,1008.25
2023-07-05T02:54:05.589Z,1008.25
2023-07-05T02:55:05.552Z,1008.24
2023-07-05T02:56:05.593Z,1008.24
2023-07-05T02:57:05.502Z,1008.18
2023-07-05T02:58:05.536Z,1008.23
2023-07-05T02:59:05.445Z,1008.22
2023-07-05T03:00:05.394Z,1008.18
2023-07-05T03:01:05.364Z,1008.17
2023-07-05T03:02:05.449Z,1008.17
2023-07-05T03:03:05.440Z,1008.21
2023-07-05T03:04:05.363Z,1008.14
2023-07-05T03:05:05.247Z,1008.11
2023-07-05T03:06:05.238Z,1008.19
2023-07-05T03:07:05.180Z,1008.17
2023-07-05T03:08:05.164Z,1008.15
2023-07-05T03:09:05.177Z,1008.13
2023-07-05T03:10:05.109Z,1008.15
2023-07-05T03:11:05.058Z,1008.17
2023-07-05T03:12:05.020Z,1008.18
2023-07-05T03:13:05.011Z,1008.19
2023-07-05T03:14:05.099Z,1008.18
2023-07-05T03:15:04.945Z,1008.19
2023-07-05T03:16:04.910Z,1008.18
2023-07-05T03:17:04.907Z,1008.20
2023-07-05T03:18:04.878Z,1008.14
2023-07-05T03:19:04.890Z,1008.15
2023-07-05T03:20:04.781Z,1008.17
2023-07-05T03:21:04.771Z,1008.13
2023-07-05T03:22:04.722Z,1008.15
2023-07-05T03:23:04.709Z,1008.14
2023-07-05T03:24:04.677Z,1008.16
2023-07-05T03:25:04.708Z,1008.16
2023-07-05T03:26:04.604Z,1008.15
2023-07-05T03:27:04.566Z,1008.17
2023-07-05T03:28:04.596Z,1008.13
2023-07-05T03:29:04.526Z,1008.11
2023-07-05T03:30:04.620Z,1008.09
2023-07-05T03:31:04.534Z,1008.03
2023-07-05T03:32:04.458Z,1008.06
2023-07-05T03:33:04.483Z,1008.04
2023-07-05T03:34:04.348Z,1008.01
2023-07-05T03:35:04.404Z,1008.01
2023-07-05T03:36:04.306Z,1008.02
2023-07-05T03:37:04.326Z,1007.96
2023-07-05T03:38:04.246Z,1007.99
2023-07-05T03:39:04.209Z,1007.93
2023-07-05T03:40:04.220Z,1007.92
2023-07-05T03:41:04.216Z,1007.89
2023-07-05T03:42:04.114Z,1007.90
2023-07-05T03:43:04.092Z,1007.90
2023-07-05T03:44:04.058Z,1007.91
2023-07-05T03:45:04.029Z,1007.92
2023-07-05T03:46:04.194Z,1007.87
2023-07-05T03:47:03.968Z,1007.90
2023-07-05T03:48:03.966Z,1007.88
2023-07-05T03:49:06.851Z,1007.89
2023-07-05T03:50:03.883Z,1007.85
2023-07-05T03:51:03.848Z,1007.86
2023-07-05T03:52:03.880Z,1007.84
2023-07-05T03:53:03.814Z,1007.82
2023-07-05T03:54:03.751Z,1007.81
2023-07-05T03:55:03.739Z,1007.87
2023-07-05T03:56:03.699Z,1007.82
2023-07-05T03:57:03.833Z,1007.78
2023-07-05T03:58:03.630Z,1007.76
2023-07-05T03:59:03.610Z,1007.81
2023-07-05T04:00:03.571Z,1007.80
2023-07-05T04:01:03.556Z,1007.77
2023-07-05T04:02:03.541Z,1007.74
2023-07-05T04:03:03.601Z,1007.74
2023-07-05T04:04:03.508Z,1007.71
2023-07-05T04:05:03.417Z,1007.68
2023-07-05T04:06:03.392Z,1007.70
2023-07-05T04:07:03.496Z,1007.68
2023-07-05T04:08:03.360Z,1007.67
2023-07-05T04:09:03.322Z,1007.63
2023-07-05T04:10:03.277Z,1007.59
2023-07-05T04:11:03.242Z,1007.50
2023-07-05T04:12:03.294Z,1007.55
2023-07-05T04:13:03.187Z,1007.48
2023-07-05T04:14:03.274Z,1007.47
2023-07-05T04:15:03.121Z,1007.45
2023-07-05T04:16:03.138Z,1007.47
2023-07-05T04:17:03.187Z,1007.47
2023-07-05T04:18:03.093Z,1007.47
2023-07-05T04:19:03.052Z,1007.45
2023-07-05T04:20:02.996Z,1007.48
2023-07-05T04:21:02.996Z,1007.45
2023-07-05T04:22:02.918Z,1007.45
2023-07-05T04:23:03.086Z,1007.38
2023-07-05T04:24:02.856Z,1007.47
2023-07-05T04:25:02.872Z,1007.44
2023-07-05T04:26:02.862Z,1007.40
2023-07-05T04:27:02.820Z,1007.38
2023-07-05T04:28:02.744Z,1007.36
2023-07-05T04:29:02.794Z,1007.44
2023-07-05T04:30:02.682Z,1007.35
2023-07-05T04:31:02.710Z,1007.38
2023-07-05T04:32:02.640Z,1007.30
2023-07-05T04:33:02.715Z,1007.32
2023-07-05T04:34:02.642Z,1007.31
2023-07-05T04:35:02.594Z,1007.29
2023-07-05T04:36:02.531Z,1007.30
2023-07-05T04:37:02.503Z,1007.28
2023-07-05T04:38:02.480Z,1007.31
2023-07-05T04:39:02.495Z,1007.30
2023-07-05T04:40:03.479Z,1007.31
2023-07-05T04:41:02.389Z,1007.30
2023-07-05T04:42:02.412Z,1007.32
2023-07-05T04:43:02.340Z,1007.29
2023-07-05T04:44:02.371Z,1007.26
2023-07-05T04:45:02.249Z,1007.25
2023-07-05T04:46:02.282Z,1007.25
2023-07-05T04:47:02.192Z,1007.23
2023-07-05T04:48:02.213Z,1007.21
2023-07-05T04:49:02.188Z,1007.16
2023-07-05T04:50:02.114Z,1007.17
2023-07-05T04:51:02.082Z,1007.12
2023-07-05T04:52:02.058Z,1007.14
2023-07-05T04:53:02.023Z,1007.17
2023-07-05T04:54:02.112Z,1007.19
2023-07-05T04:55:01.979Z,1007.18
2023-07-05T04:56:01.951Z,1007.17
2023-07-05T04:57:01.904Z,1007.22
2023-07-05T04:58:01.898Z,1007.21
2023-07-05T04:59:01.852Z,1007.23
2023-07-05T05:00:01.979Z,1007.21
2023-07-05T05:01:01.892Z,1007.22
2023-07-05T05:02:02.021Z,1007.17
2023-07-05T05:03:01.756Z,1007.18
2023-07-05T05:04:01.746Z,1007.13
2023-07-05T05:05:01.689Z,1007.11
2023-07-05T05:06:01.709Z,1007.12
2023-07-05T05:07:01.628Z,1007.11
2023-07-05T05:08:01.604Z,1007.11
2023-07-05T05:09:01.567Z,1007.08
2023-07-05T05:10:01.543Z,1007.06
2023-07-05T05:11:01.632Z,1007.04
2023-07-05T05:12:01.481Z,1007.04
2023-07-05T05:13:01.459Z,1007.04
2023-07-05T05:14:01.535Z,1007.04
2023-07-05T05:15:01.391Z,1007.07
2023-07-05T05:16:01.469Z,1007.08
2023-07-05T05:17:01.405Z,1007.09
2023-07-05T05:18:01.408Z,1007.07
2023-07-05T05:19:01.287Z,1007.05
2023-07-05T05:20:01.260Z,1007.02
2023-07-05T05:21:01.225Z,1006.95
2023-07-05T05:22:01.296Z,1006.89
2023-07-05T05:23:01.179Z,1006.92
2023-07-05T05:24:01.226Z,1006.89
2023-07-05T05:25:01.143Z,1006.87
2023-07-05T05:26:01.136Z,1006.86
2023-07-05T05:27:01.061Z,1006.86
2023-07-05T05:28:01.128Z,1006.82
2023-07-05T05:29:00.997Z,1006.79
2023-07-05T05:30:07.395Z,1006.75
2023-07-05T05:31:00.979Z,1006.71
2023-07-05T05:32:00.933Z,1006.74
2023-07-05T05:33:00.923Z,1006.68
2023-07-05T05:34:00.910Z,1006.67
2023-07-05T05:35:00.833Z,1006.71
2023-07-05T05:36:00.809Z,1006.69
2023-07-05T05:37:00.776Z,1006.70
2023-07-05T05:38:00.749Z,1006.68
2023-07-05T05:39:00.710Z,1006.66
2023-07-05T05:40:00.760Z,1006.65
2023-07-05T05:41:00.698Z,1006.59
2023-07-05T05:42:00.630Z,1006.51
2023-07-05T05:43:00.604Z,1006.45
2023-07-05T05:44:00.584Z,1006.44
2023-07-05T05:45:00.560Z,1006.51
2023-07-05T05:46:00.631Z,1006.45
2023-07-05T05:47:00.585Z,1006.42
2023-07-05T05:48:00.495Z,1006.37
2023-07-05T05:49:00.455Z,1006.43
2023-07-05T05:50:00.404Z,1006.34
2023-07-05T05:51:00.386Z,1006.33
2023-07-05T05:52:00.406Z,1006.31
2023-07-05T05:53:00.345Z,1006.26
2023-07-05T05:54:00.304Z,1006.25
2023-07-05T05:55:00.280Z,1006.18
2023-07-05T05:56:00.256Z,1006.23
2023-07-05T05:57:00.223Z,1006.17
2023-07-05T05:58:00.277Z,1006.19
2023-07-05T05:59:00.171Z,1006.16
2023-07-05T06:00:00.168Z,1006.15
2023-07-05T06:01:00.117Z,1006.10
2023-07-05T06:02:00.105Z,1006.10
2023-07-05T06:03:00.141Z,1006.07
2023-07-05T06:04:00.099Z,1006.01
2023-07-05T06:05:00.024Z,1005.98
2023-07-05T06:05:59.975Z,1005.96
2023-07-05T06:06:59.943Z,1005.94
2023-07-05T06:07:59.921Z,1005.94
2023-07-05T06:08:59.940Z,1005.94
2023-07-05T06:10:00.023Z,1005.91
2023-07-05T06:10:59.836Z,1005.91
2023-07-05T06:11:59.818Z,1005.92
2023-07-05T06:12:59.796Z,1005.86
2023-07-05T06:14:00.580Z,1005.86
2023-07-05T06:14:59.738Z,1005.86
2023-07-05T06:16:12.057Z,1005.86
2023-07-05T06:16:59.712Z,1005.89
2023-07-05T06:17:59.714Z,1005.89
2023-07-05T06:18:59.621Z,1005.91
2023-07-05T06:19:59.656Z,1005.85
2023-07-05T06:20:59.699Z,1005.84
2023-07-05T06:21:59.539Z,1005.88
2023-07-05T06:22:59.511Z,1005.84
2023-07-05T06:23:59.500Z,1005.79
2023-07-05T06:24:59.529Z,1005.81
2023-07-05T06:25:59.509Z,1005.78
2023-07-05T06:26:59.414Z,1005.79
2023-07-05T06:27:59.373Z,1005.76
2023-07-05T06:28:59.364Z,1005.77
2023-07-05T06:29:59.329Z,1005.74
2023-07-05T06:30:59.393Z,1005.77
2023-07-05T06:31:59.268Z,1005.71
2023-07-05T06:32:59.270Z,1005.69
2023-07-05T06:33:59.271Z,1005.62
2023-07-05T06:34:59.336Z,1005.65
2023-07-05T06:35:59.158Z,1005.64
2023-07-05T06:36:59.189Z,1005.64
2023-07-05T06:37:59.116Z,1005.64
2023-07-05T06:38:59.082Z,1005.68
2023-07-05T06:39:59.091Z,1005.68
2023-07-05T06:40:59.066Z,1005.73
2023-07-05T06:41:59.003Z,1005.77
2023-07-05T06:42:59.024Z,1005.80
2023-07-05T06:43:58.949Z,1005.93
2023-07-05T06:44:58.924Z,1005.97
2023-07-05T06:45:58.910Z,1005.99
2023-07-05T06:46:58.922Z,1006.03
2023-07-05T06:47:58.918Z,1006.05
2023-07-05T06:48:58.830Z,1005.92
2023-07-05T06:49:58.787Z,1005.86
2023-07-05T06:50:58.761Z,1005.82
2023-07-05T06:51:58.748Z,1005.81
2023-07-05T06:53:16.585Z,1005.86
2023-07-05T06:53:58.678Z,1005.94
2023-07-05T06:54:58.649Z,1005.97
2023-07-05T06:55:58.625Z,1005.97
2023-07-05T06:56:58.637Z,1006.00
2023-07-05T06:57:58.581Z,1006.01
2023-07-05T06:58:58.595Z,1006.00
2023-07-05T06:59:58.519Z,1006.02
2023-07-05T07:00:58.503Z,1005.99
2023-07-05T07:01:58.511Z,1005.92
2023-07-05T07:02:58.490Z,1005.89
2023-07-05T07:03:58.455Z,1005.93
2023-07-05T07:04:58.464Z,1005.85
2023-07-05T07:05:58.375Z,1005.74
2023-07-05T07:06:58.347Z,1005.64
2023-07-05T07:07:58.339Z,1005.69
2023-07-05T07:08:58.293Z,1005.64
2023-07-05T07:09:58.276Z,1005.66
2023-07-05T07:10:58.300Z,1005.70
2023-07-05T07:11:58.230Z,1005.69
2023-07-05T07:12:58.198Z,1005.69
2023-07-05T07:13:58.209Z,1005.71
2023-07-05T07:14:58.148Z,1005.71
2023-07-05T07:15:58.161Z,1005.75
2023-07-05T07:16:58.154Z,1005.73
2023-07-05T07:17:58.097Z,1005.72
2023-07-05T07:18:58.074Z,1005.69
2023-07-05T07:19:58.032Z,1005.63
2023-07-05T07:20:58.028Z,1005.62
2023-07-05T07:21:58.046Z,1005.56
2023-07-05T07:22:57.988Z,1005.55
2023-07-05T07:23:58.010Z,1005.62
2023-07-05T07:24:57.908Z,1005.67
2023-07-05T07:25:57.935Z,1005.61
2023-07-05T07:26:57.942Z,1005.65
2023-07-05T07:27:57.910Z,1005.66
2023-07-05T07:28:57.809Z,1005.68
2023-07-05T07:29:57.790Z,1005.70
2023-07-05T07:30:57.787Z,1005.76
2023-07-05T07:31:57.763Z,1005.75
2023-07-05T07:32:57.767Z,1005.79
2023-07-05T07:33:57.788Z,1005.73
2023-07-05T07:34:57.677Z,1005.77
2023-07-05T07:35:57.658Z,1005.65
2023-07-05T07:36:57.629Z,1005.63
2023-07-05T07:37:57.619Z,1005.70
2023-07-05T07:38:57.583Z,1005.71
2023-07-05T07:39:57.628Z,1005.77
2023-07-05T07:40:57.566Z,1005.73
2023-07-05T07:41:57.510Z,1005.74
2023-07-05T07:42:57.506Z,1005.72
2023-07-05T07:43:57.479Z,1005.72
2023-07-05T07:44:57.446Z,1005.75
2023-07-05T07:45:57.495Z,1005.78
2023-07-05T07:46:57.403Z,1005.80
2023-07-05T07:47:57.401Z,1005.82
2023-07-05T07:48:57.356Z,1005.84
2023-07-05T07:49:57.338Z,1005.91
2023-07-05T07:50:57.373Z,1005.91
2023-07-05T07:51:57.346Z,1005.90
2023-07-05T07:52:57.258Z,1005.93
2023-07-05T07:53:57.243Z,1005.90
2023-07-05T07:54:57.219Z,1005.90
2023-07-05T07:55:57.182Z,1005.91
2023-07-05T07:56:57.170Z,1005.93
2023-07-05T07:57:57.265Z,1006.00
2023-07-05T07:58:57.136Z,1006.02
2023-07-05T07:59:57.099Z,1005.99
2023-07-05T08:00:57.185Z,1006.01
2023-07-05T08:01:57.066Z,1005.98
2023-07-05T08:02:57.541Z,1006.04
2023-07-05T08:03:57.185Z,1006.05
2023-07-05T08:04:57.124Z,1006.05
2023-07-05T08:05:56.957Z,1006.08
2023-07-05T08:06:56.926Z,1006.06
2023-07-05T08:07:56.928Z,1006.04
2023-07-05T08:08:56.875Z,1005.99
2023-07-05T08:09:56.908Z,1005.92
2023-07-05T08:10:56.935Z,1005.91
2023-07-05T08:11:56.808Z,1005.94
2023-07-05T08:12:56.785Z,1005.88
2023-07-05T08:13:56.848Z,1005.89
2023-07-05T08:14:56.756Z,1005.85
2023-07-05T08:15:56.826Z,1005.85
2023-07-05T08:16:56.696Z,1005.85
2023-07-05T08:17:56.744Z,1005.88
2023-07-05T08:18:56.635Z,1005.91
2023-07-05T08:19:56.621Z,1005.95
2023-07-05T08:20:56.712Z,1005.94
2023-07-05T08:21:56.621Z,1005.89
2023-07-05T08:22:56.560Z,1005.94
2023-07-05T08:23:56.645Z,1005.93
2023-07-05T08:24:56.492Z,1005.98
2023-07-05T08:25:56.472Z,1005.98
2023-07-05T08:26:56.513Z,1005.97
2023-07-05T08:27:56.485Z,1005.95
2023-07-05T08:28:56.401Z,1005.93
2023-07-05T08:29:56.386Z,1005.94
2023-07-05T08:30:56.717Z,1005.92
2023-07-05T08:31:56.417Z,1005.98
2023-07-05T08:32:56.408Z,1005.95
2023-07-05T08:33:56.429Z,1005.93
2023-07-05T08:34:56.261Z,1005.99
2023-07-05T08:35:56.255Z,1005.97
2023-07-05T08:36:56.220Z,1005.94
2023-07-05T08:37:56.203Z,1005.93
2023-07-05T08:38:56.215Z,1005.95
2023-07-05T08:39:56.207Z,1005.90
2023-07-05T08:40:56.205Z,1005.89
2023-07-05T08:41:56.096Z,1005.92
2023-07-05T08:42:56.091Z,1005.89
2023-07-05T08:43:56.056Z,1005.89
2023-07-05T08:44:56.022Z,1005.91
2023-07-05T08:45:56.095Z,1005.89
2023-07-05T08:46:56.118Z,1005.93
2023-07-05T08:47:56.012Z,1005.90
2023-07-05T08:48:55.938Z,1005.86
2023-07-05T08:49:55.906Z,1005.88
2023-07-05T08:51:13.312Z,1005.87
2023-07-05T08:51:55.997Z,1005.84
2023-07-05T08:52:55.844Z,1005.86
2023-07-05T08:53:55.805Z,1005.85
2023-07-05T08:54:55.794Z,1005.82
2023-07-05T08:55:55.762Z,1005.80
2023-07-05T08:56:55.754Z,1005.82
2023-07-05T08:57:55.776Z,1005.86
2023-07-05T08:58:55.699Z,1005.86
2023-07-05T08:59:55.664Z,1005.86
2023-07-05T09:00:55.839Z,1005.87
2023-07-05T09:01:55.824Z,1005.84
2023-07-05T09:02:55.631Z,1005.84
2023-07-05T09:03:55.720Z,1005.86
2023-07-05T09:04:55.556Z,1005.87
2023-07-05T09:05:55.534Z,1005.86
2023-07-05T09:06:55.504Z,1005.87
2023-07-05T09:07:55.503Z,1005.92
2023-07-05T09:08:55.475Z,1005.94
2023-07-05T09:09:55.476Z,1005.92
2023-07-05T09:10:55.777Z,1005.94
2023-07-05T09:11:55.392Z,1005.94
2023-07-05T09:12:55.483Z,1005.87
2023-07-05T09:13:55.451Z,1005.93
2023-07-05T09:14:55.328Z,1005.89
2023-07-05T09:15:55.295Z,1005.93
2023-07-05T09:16:55.303Z,1005.88
2023-07-05T09:17:55.353Z,1005.89
2023-07-05T09:18:55.224Z,1005.91
2023-07-05T09:19:55.210Z,1005.90
2023-07-05T09:20:55.472Z,1005.93
2023-07-05T09:21:55.234Z,1005.89
2023-07-05T09:22:55.198Z,1005.84
2023-07-05T09:23:55.163Z,1005.89
2023-07-05T09:24:55.088Z,1005.88
2023-07-05T09:25:56.235Z,1005.87
2023-07-05T09:26:55.046Z,1005.87
2023-07-05T09:27:55.089Z,1005.89
2023-07-05T09:28:54.993Z,1005.94
2023-07-05T09:29:54.980Z,1005.90
2023-07-05T09:30:54.993Z,1005.91
2023-07-05T09:31:54.919Z,1005.91
2023-07-05T09:32:54.956Z,1005.93
2023-07-05T09:33:54.951Z,1005.93
2023-07-05T09:34:54.867Z,1005.90
2023-07-05T09:35:55.069Z,1005.84
2023-07-05T09:36:54.866Z,1005.86
2023-07-05T09:37:54.815Z,1005.90
2023-07-05T09:38:54.789Z,1005.86
2023-07-05T09:39:54.824Z,1005.85
2023-07-05T09:40:54.742Z,1005.79
2023-07-05T09:41:54.716Z,1005.77
2023-07-05T09:42:54.749Z,1005.81
2023-07-05T09:43:54.678Z,1005.71
2023-07-05T09:44:54.658Z,1005.71
2023-07-05T09:45:54.976Z,1005.71
2023-07-05T09:46:54.652Z,1005.70
2023-07-05T09:47:54.680Z,1005.69
2023-07-05T09:48:54.680Z,1005.77
2023-07-05T09:50:03.911Z,1005.74
2023-07-05T09:50:54.514Z,1005.69
2023-07-05T09:51:54.485Z,1005.63
2023-07-05T09:52:54.470Z,1005.74
2023-07-05T09:53:54.507Z,1005.78
2023-07-05T09:54:54.428Z,1005.69
2023-07-05T09:55:54.556Z,1005.72
2023-07-05T09:56:55.822Z,1005.70
2023-07-05T09:57:54.472Z,1005.72
2023-07-05T09:58:54.553Z,1005.66
2023-07-05T09:59:54.342Z,1005.70
2023-07-05T10:00:54.306Z,1005.72
2023-07-05T10:01:54.322Z,1005.75
2023-07-05T10:02:54.390Z,1005.63
2023-07-05T10:03:54.363Z,1005.69
2023-07-05T10:04:54.298Z,1005.68
2023-07-05T10:05:54.475Z,1005.66
2023-07-05T10:06:54.197Z,1005.67
2023-07-05T10:07:54.286Z,1005.61
2023-07-05T10:08:54.217Z,1005.58
2023-07-05T10:09:54.114Z,1005.58
2023-07-05T10:10:54.102Z,1005.64
2023-07-05T10:11:54.114Z,1005.61
2023-07-05T10:12:54.092Z,1005.55
2023-07-05T10:13:54.056Z,1005.51
2023-07-05T10:14:54.070Z,1005.46
2023-07-05T10:15:54.235Z,1005.50
2023-07-05T10:16:54.008Z,1005.51
2023-07-05T10:17:54.145Z,1005.50
2023-07-05T10:18:53.933Z,1005.55
2023-07-05T10:19:53.915Z,1005.53
2023-07-05T10:20:53.965Z,1005.49
2023-07-05T10:21:53.885Z,1005.51
2023-07-05T10:22:53.859Z,1005.50
2023-07-05T10:23:53.834Z,1005.53
2023-07-05T10:24:53.819Z,1005.48
2023-07-05T10:25:54.107Z,1005.49
2023-07-05T10:26:53.832Z,1005.49
2023-07-05T10:27:53.764Z,1005.48
2023-07-05T10:28:53.735Z,1005.47
2023-07-05T10:29:53.714Z,1005.48
2023-07-05T10:30:53.733Z,1005.50
2023-07-05T10:31:53.724Z,1005.52
2023-07-05T10:32:53.732Z,1005.53
2023-07-05T10:33:53.655Z,1005.55
2023-07-05T10:34:53.623Z,1005.54
2023-07-05T10:35:53.839Z,1005.50
2023-07-05T10:36:53.624Z,1005.50
2023-07-05T10:37:53.561Z,1005.51
2023-07-05T10:38:53.599Z,1005.52
2023-07-05T10:39:53.521Z,1005.59
2023-07-05T10:40:53.570Z,1005.56
2023-07-05T10:41:53.469Z,1005.61
2023-07-05T10:42:54.334Z,1005.59
2023-07-05T10:43:53.432Z,1005.51
2023-07-05T10:44:53.448Z,1005.47
2023-07-05T10:45:53.677Z,1005.46
2023-07-05T10:46:53.431Z,1005.52
2023-07-05T10:47:53.636Z,1005.52
2023-07-05T10:48:53.316Z,1005.60
2023-07-05T10:49:53.317Z,1005.61
2023-07-05T10:50:53.490Z,1005.62
2023-07-05T10:51:53.254Z,1005.58
2023-07-05T10:52:53.304Z,1005.60
2023-07-05T10:53:53.216Z,1005.50
2023-07-05T10:54:53.224Z,1005.50
2023-07-05T10:55:53.379Z,1005.51
2023-07-05T10:56:53.156Z,1005.51
2023-07-05T10:57:53.130Z,1005.58
2023-07-05T10:58:53.202Z,1005.55
2023-07-05T10:59:53.093Z,1005.55
2023-07-05T11:00:53.237Z,1005.57
2023-07-05T11:01:53.112Z,1005.60
2023-07-05T11:02:53.057Z,1005.57
2023-07-05T11:03:53.022Z,1005.64
2023-07-05T11:04:53.096Z,1005.60
2023-07-05T11:05:53.033Z,1005.58
2023-07-05T11:06:52.959Z,1005.60
2023-07-05T11:07:52.926Z,1005.59
2023-07-05T11:08:52.901Z,1005.61
2023-07-05T11:09:52.913Z,1005.56
2023-07-05T11:10:53.283Z,1005.53
2023-07-05T11:11:52.840Z,1005.47
2023-07-05T11:12:52.822Z,1005.48
2023-07-05T11:13:52.883Z,1005.53
2023-07-05T11:14:52.785Z,1005.49
2023-07-05T11:15:54.250Z,1005.52
2023-07-05T11:16:52.824Z,1005.49
2023-07-05T11:17:52.741Z,1005.54
2023-07-05T11:18:52.701Z,1005.51
2023-07-05T11:19:52.692Z,1005.50
2023-07-05T11:20:52.858Z,1005.54
2023-07-05T11:21:52.631Z,1005.53
2023-07-05T11:22:52.727Z,1005.50
2023-07-05T11:23:52.602Z,1005.50
2023-07-05T11:24:52.577Z,1005.52
2023-07-05T11:25:52.556Z,1005.50
2023-07-05T11:26:52.539Z,1005.59
2023-07-05T11:27:52.564Z,1005.60
2023-07-05T11:28:52.503Z,1005.58
2023-07-05T11:29:52.510Z,1005.65
2023-07-05T11:30:52.490Z,1005.58
2023-07-05T11:31:52.473Z,1005.63
2023-07-05T11:32:52.442Z,1005.65
2023-07-05T11:33:52.479Z,1005.63
2023-07-05T11:34:52.392Z,1005.60
2023-07-05T11:35:52.355Z,1005.59
2023-07-05T11:36:52.339Z,1005.52
2023-07-05T11:37:52.322Z,1005.56
2023-07-05T11:38:52.300Z,1005.53
2023-07-05T11:39:52.347Z,1005.60
2023-07-05T11:40:52.261Z,1005.61
2023-07-05T11:41:52.235Z,1005.64
2023-07-05T11:42:52.220Z,1005.64
2023-07-05T11:43:52.203Z,1005.66
2023-07-05T11:44:52.188Z,1005.73
2023-07-05T11:45:52.224Z,1005.71
2023-07-05T11:46:52.139Z,1005.71
2023-07-05T11:47:52.155Z,1005.68
2023-07-05T11:48:52.109Z,1005.65
2023-07-05T11:49:52.088Z,1005.71
2023-07-05T11:50:52.136Z,1005.64
2023-07-05T11:51:52.094Z,1005.62
2023-07-05T11:52:52.035Z,1005.61
2023-07-05T11:53:52.007Z,1005.66
2023-07-05T11:54:51.980Z,1005.67
2023-07-05T11:55:51.968Z,1005.68
2023-07-05T11:56:51.952Z,1005.67
2023-07-05T11:57:51.979Z,1005.67
2023-07-05T11:58:51.913Z,1005.62
2023-07-05T11:59:51.911Z,1005.64
2023-07-05T12:00:51.908Z,1005.67
2023-07-05T12:01:51.905Z,1005.70
2023-07-05T12:02:51.872Z,1005.67
2023-07-05T12:03:51.926Z,1005.61
2023-07-05T12:04:51.791Z,1005.65